sensor_id;sensor_type;location;lat;lon;timestamp;P1;durP1;ratioP1;P2;durP2;ratioP2
34405;SDS011;20658;45.630;8.886;2024-01-30T00:01:54;75.60;;;45.20;;
34405;SDS011;20658;45.630;8.886;2024-01-30T00:04:27;75.55;;;45.45;;
34405;SDS011;20658;45.630;8.886;2024-01-30T00:07:02;80.50;;;45.47;;
34405;SDS011;20658;45.630;8.886;2024-01-30T00:09:37;75.57;;;43.20;;
34405;SDS011;20658;45.630;8.886;2024-01-30T00:12:11;77.15;;;44.35;;
34405;SDS011;20658;45.630;8.886;2024-01-30T00:14:45;80.20;;;45.08;;
34405;SDS011;20658;45.630;8.886;2024-01-30T00:17:18;78.90;;;45.65;;
34405;SDS011;20658;45.630;8.886;2024-01-30T00:19:47;78.93;;;46.25;;
34405;SDS011;20658;45.630;8.886;2024-01-30T00:22:22;88.38;;;47.00;;
34405;SDS011;20658;45.630;8.886;2024-01-30T00:24:50;80.88;;;44.47;;
34405;SDS011;20658;45.630;8.886;2024-01-30T00:27:23;79.55;;;46.42;;
34405;SDS011;20658;45.630;8.886;2024-01-30T00:29:57;76.40;;;45.03;;
34405;SDS011;20658;45.630;8.886;2024-01-30T00:32:30;91.22;;;48.88;;
34405;SDS011;20658;45.630;8.886;2024-01-30T00:35:04;90.97;;;56.95;;
34405;SDS011;20658;45.630;8.886;2024-01-30T00:37:39;83.30;;;47.92;;
34405;SDS011;20658;45.630;8.886;2024-01-30T00:40:13;91.65;;;56.78;;
34405;SDS011;20658;45.630;8.886;2024-01-30T00:42:49;107.22;;;65.47;;
34405;SDS011;20658;45.630;8.886;2024-01-30T00:45:22;118.82;;;73.63;;
34405;SDS011;20658;45.630;8.886;2024-01-30T00:47:56;113.43;;;71.95;;
34405;SDS011;20658;45.630;8.886;2024-01-30T00:50:29;105.50;;;65.68;;
34405;SDS011;20658;45.630;8.886;2024-01-30T00:53:04;91.30;;;56.22;;
34405;SDS011;20658;45.630;8.886;2024-01-30T00:55:38;94.93;;;56.90;;
34405;SDS011;20658;45.630;8.886;2024-01-30T00:58:11;90.63;;;55.17;;
34405;SDS011;20658;45.630;8.886;2024-01-30T01:00:45;86.00;;;52.33;;
34405;SDS011;20658;45.630;8.886;2024-01-30T01:03:18;82.82;;;48.33;;
34405;SDS011;20658;45.630;8.886;2024-01-30T01:05:51;79.32;;;48.38;;
34405;SDS011;20658;45.630;8.886;2024-01-30T01:08:26;87.40;;;50.42;;
34405;SDS011;20658;45.630;8.886;2024-01-30T01:11:00;94.93;;;56.97;;
34405;SDS011;20658;45.630;8.886;2024-01-30T01:13:34;91.30;;;52.30;;
34405;SDS011;20658;45.630;8.886;2024-01-30T01:16:08;80.32;;;46.92;;
34405;SDS011;20658;45.630;8.886;2024-01-30T01:18:41;76.75;;;45.42;;
34405;SDS011;20658;45.630;8.886;2024-01-30T01:21:18;70.90;;;43.63;;
34405;SDS011;20658;45.630;8.886;2024-01-30T01:23:53;73.20;;;42.40;;
34405;SDS011;20658;45.630;8.886;2024-01-30T01:26:26;65.57;;;38.80;;
34405;SDS011;20658;45.630;8.886;2024-01-30T01:29:00;67.40;;;39.90;;
34405;SDS011;20658;45.630;8.886;2024-01-30T01:31:35;75.13;;;45.55;;
34405;SDS011;20658;45.630;8.886;2024-01-30T01:34:14;73.97;;;42.50;;
34405;SDS011;20658;45.630;8.886;2024-01-30T01:36:48;73.15;;;43.22;;
34405;SDS011;20658;45.630;8.886;2024-01-30T01:39:23;74.05;;;43.10;;
34405;SDS011;20658;45.630;8.886;2024-01-30T01:41:56;76.43;;;41.60;;
34405;SDS011;20658;45.630;8.886;2024-01-30T01:44:30;72.82;;;41.92;;
34405;SDS011;20658;45.630;8.886;2024-01-30T01:47:03;68.07;;;41.53;;
34405;SDS011;20658;45.630;8.886;2024-01-30T01:49:32;78.97;;;45.95;;
34405;SDS011;20658;45.630;8.886;2024-01-30T01:52:05;64.57;;;41.35;;
34405;SDS011;20658;45.630;8.886;2024-01-30T01:54:36;63.85;;;39.63;;
34405;SDS011;20658;45.630;8.886;2024-01-30T01:57:09;73.25;;;37.60;;
34405;SDS011;20658;45.630;8.886;2024-01-30T01:59:43;65.00;;;40.05;;
34405;SDS011;20658;45.630;8.886;2024-01-30T02:02:16;67.22;;;36.75;;
34405;SDS011;20658;45.630;8.886;2024-01-30T02:04:46;58.90;;;36.25;;
34405;SDS011;20658;45.630;8.886;2024-01-30T02:07:15;62.08;;;36.15;;
34405;SDS011;20658;45.630;8.886;2024-01-30T02:09:50;75.68;;;37.42;;
34405;SDS011;20658;45.630;8.886;2024-01-30T02:12:18;60.17;;;36.97;;
34405;SDS011;20658;45.630;8.886;2024-01-30T02:14:47;67.50;;;37.60;;
34405;SDS011;20658;45.630;8.886;2024-01-30T02:17:21;63.63;;;37.85;;
34405;SDS011;20658;45.630;8.886;2024-01-30T02:19:51;64.25;;;35.92;;
34405;SDS011;20658;45.630;8.886;2024-01-30T02:22:21;66.25;;;39.50;;
34405;SDS011;20658;45.630;8.886;2024-01-30T02:24:56;65.47;;;40.15;;
34405;SDS011;20658;45.630;8.886;2024-01-30T02:27:29;73.80;;;44.55;;
34405;SDS011;20658;45.630;8.886;2024-01-30T02:30:03;69.50;;;42.13;;
34405;SDS011;20658;45.630;8.886;2024-01-30T02:32:38;64.72;;;38.65;;
34405;SDS011;20658;45.630;8.886;2024-01-30T02:35:06;67.22;;;41.42;;
34405;SDS011;20658;45.630;8.886;2024-01-30T02:37:41;62.50;;;39.38;;
34405;SDS011;20658;45.630;8.886;2024-01-30T02:40:15;62.15;;;38.17;;
34405;SDS011;20658;45.630;8.886;2024-01-30T02:42:48;66.45;;;38.22;;
34405;SDS011;20658;45.630;8.886;2024-01-30T02:45:22;64.88;;;39.47;;
34405;SDS011;20658;45.630;8.886;2024-01-30T02:47:50;72.97;;;40.30;;
34405;SDS011;20658;45.630;8.886;2024-01-30T02:50:19;62.70;;;37.88;;
34405;SDS011;20658;45.630;8.886;2024-01-30T02:52:54;57.45;;;34.10;;
34405;SDS011;20658;45.630;8.886;2024-01-30T02:55:27;65.47;;;37.30;;
34405;SDS011;20658;45.630;8.886;2024-01-30T02:58:01;61.70;;;35.83;;
34405;SDS011;20658;45.630;8.886;2024-01-30T03:00:34;62.13;;;37.92;;
34405;SDS011;20658;45.630;8.886;2024-01-30T03:03:08;62.92;;;38.30;;
34405;SDS011;20658;45.630;8.886;2024-01-30T03:05:41;57.28;;;36.42;;
34405;SDS011;20658;45.630;8.886;2024-01-30T03:08:16;59.88;;;36.15;;
34405;SDS011;20658;45.630;8.886;2024-01-30T03:10:44;58.58;;;34.03;;
34405;SDS011;20658;45.630;8.886;2024-01-30T03:13:18;68.15;;;37.85;;
34405;SDS011;20658;45.630;8.886;2024-01-30T03:15:51;57.92;;;34.53;;
34405;SDS011;20658;45.630;8.886;2024-01-30T03:18:25;63.15;;;34.58;;
34405;SDS011;20658;45.630;8.886;2024-01-30T03:20:58;64.15;;;34.95;;
34405;SDS011;20658;45.630;8.886;2024-01-30T03:23:33;62.15;;;34.70;;
34405;SDS011;20658;45.630;8.886;2024-01-30T03:26:07;54.97;;;33.92;;
34405;SDS011;20658;45.630;8.886;2024-01-30T03:28:36;56.35;;;33.20;;
34405;SDS011;20658;45.630;8.886;2024-01-30T03:31:05;60.58;;;35.08;;
34405;SDS011;20658;45.630;8.886;2024-01-30T03:33:38;60.05;;;34.72;;
34405;SDS011;20658;45.630;8.886;2024-01-30T03:36:11;61.83;;;35.38;;
34405;SDS011;20658;45.630;8.886;2024-01-30T03:38:46;56.15;;;31.73;;
34405;SDS011;20658;45.630;8.886;2024-01-30T03:41:20;58.17;;;34.00;;
34405;SDS011;20658;45.630;8.886;2024-01-30T03:43:53;55.95;;;31.83;;
34405;SDS011;20658;45.630;8.886;2024-01-30T03:46:26;57.53;;;32.80;;
34405;SDS011;20658;45.630;8.886;2024-01-30T03:48:55;56.45;;;32.83;;
34405;SDS011;20658;45.630;8.886;2024-01-30T03:51:30;58.83;;;32.67;;
34405;SDS011;20658;45.630;8.886;2024-01-30T03:54:00;60.75;;;31.45;;
34405;SDS011;20658;45.630;8.886;2024-01-30T03:56:33;53.85;;;31.63;;
34405;SDS011;20658;45.630;8.886;2024-01-30T03:59:07;57.78;;;33.33;;
34405;SDS011;20658;45.630;8.886;2024-01-30T04:01:35;53.95;;;31.02;;
34405;SDS011;20658;45.630;8.886;2024-01-30T04:04:04;54.80;;;32.25;;
34405;SDS011;20658;45.630;8.886;2024-01-30T04:06:37;53.05;;;31.25;;
34405;SDS011;20658;45.630;8.886;2024-01-30T04:09:12;53.28;;;30.58;;
34405;SDS011;20658;45.630;8.886;2024-01-30T04:11:46;54.80;;;30.88;;
34405;SDS011;20658;45.630;8.886;2024-01-30T04:14:14;53.28;;;30.73;;
34405;SDS011;20658;45.630;8.886;2024-01-30T04:16:48;54.38;;;30.80;;
34405;SDS011;20658;45.630;8.886;2024-01-30T04:19:16;56.53;;;31.98;;
34405;SDS011;20658;45.630;8.886;2024-01-30T04:21:50;53.25;;;31.33;;
34405;SDS011;20658;45.630;8.886;2024-01-30T04:24:19;54.88;;;31.17;;
34405;SDS011;20658;45.630;8.886;2024-01-30T04:26:48;52.90;;;31.58;;
34405;SDS011;20658;45.630;8.886;2024-01-30T04:29:16;53.15;;;30.35;;
34405;SDS011;20658;45.630;8.886;2024-01-30T04:31:45;56.97;;;33.03;;
34405;SDS011;20658;45.630;8.886;2024-01-30T04:34:19;55.20;;;30.70;;
34405;SDS011;20658;45.630;8.886;2024-01-30T04:36:52;52.08;;;31.65;;
34405;SDS011;20658;45.630;8.886;2024-01-30T04:39:22;49.28;;;29.48;;
34405;SDS011;20658;45.630;8.886;2024-01-30T04:41:51;49.42;;;30.30;;
34405;SDS011;20658;45.630;8.886;2024-01-30T04:44:19;53.30;;;31.05;;
34405;SDS011;20658;45.630;8.886;2024-01-30T04:46:48;51.97;;;29.60;;
34405;SDS011;20658;45.630;8.886;2024-01-30T04:49:21;49.33;;;30.02;;
34405;SDS011;20658;45.630;8.886;2024-01-30T04:51:54;50.65;;;29.65;;
34405;SDS011;20658;45.630;8.886;2024-01-30T04:54:25;47.63;;;28.58;;
34405;SDS011;20658;45.630;8.886;2024-01-30T04:56:58;48.58;;;29.23;;
34405;SDS011;20658;45.630;8.886;2024-01-30T04:59:32;51.03;;;29.90;;
34405;SDS011;20658;45.630;8.886;2024-01-30T05:02:05;49.30;;;28.70;;
34405;SDS011;20658;45.630;8.886;2024-01-30T05:04:34;47.30;;;28.38;;
34405;SDS011;20658;45.630;8.886;2024-01-30T05:07:07;48.55;;;27.20;;
34405;SDS011;20658;45.630;8.886;2024-01-30T05:09:42;49.80;;;27.13;;
34405;SDS011;20658;45.630;8.886;2024-01-30T05:12:15;50.97;;;29.52;;
34405;SDS011;20658;45.630;8.886;2024-01-30T05:14:49;46.40;;;25.65;;
34405;SDS011;20658;45.630;8.886;2024-01-30T05:17:22;45.35;;;27.05;;
34405;SDS011;20658;45.630;8.886;2024-01-30T05:19:56;46.95;;;27.15;;
34405;SDS011;20658;45.630;8.886;2024-01-30T05:22:29;46.03;;;27.65;;
34405;SDS011;20658;45.630;8.886;2024-01-30T05:25:05;45.08;;;25.63;;
34405;SDS011;20658;45.630;8.886;2024-01-30T05:27:39;49.10;;;25.50;;
34405;SDS011;20658;45.630;8.886;2024-01-30T05:30:13;43.95;;;23.52;;
34405;SDS011;20658;45.630;8.886;2024-01-30T05:32:46;42.17;;;21.98;;
34405;SDS011;20658;45.630;8.886;2024-01-30T05:35:21;44.85;;;24.48;;
34405;SDS011;20658;45.630;8.886;2024-01-30T05:37:49;44.30;;;24.30;;
34405;SDS011;20658;45.630;8.886;2024-01-30T05:40:25;45.63;;;23.75;;
34405;SDS011;20658;45.630;8.886;2024-01-30T05:42:58;41.65;;;23.75;;
34405;SDS011;20658;45.630;8.886;2024-01-30T05:45:29;40.67;;;22.70;;
34405;SDS011;20658;45.630;8.886;2024-01-30T05:48:02;40.85;;;21.90;;
34405;SDS011;20658;45.630;8.886;2024-01-30T05:50:31;42.70;;;21.77;;
34405;SDS011;20658;45.630;8.886;2024-01-30T05:53:00;44.13;;;23.33;;
34405;SDS011;20658;45.630;8.886;2024-01-30T05:55:29;40.47;;;22.13;;
34405;SDS011;20658;45.630;8.886;2024-01-30T05:58:03;38.10;;;22.33;;
34405;SDS011;20658;45.630;8.886;2024-01-30T06:00:32;40.72;;;22.83;;
34405;SDS011;20658;45.630;8.886;2024-01-30T06:03:05;40.78;;;21.77;;
34405;SDS011;20658;45.630;8.886;2024-01-30T06:05:38;37.28;;;22.70;;
34405;SDS011;20658;45.630;8.886;2024-01-30T06:08:12;43.75;;;23.63;;
34405;SDS011;20658;45.630;8.886;2024-01-30T06:10:47;37.08;;;21.58;;
34405;SDS011;20658;45.630;8.886;2024-01-30T06:13:20;39.05;;;20.83;;
34405;SDS011;20658;45.630;8.886;2024-01-30T06:15:54;38.53;;;21.00;;
34405;SDS011;20658;45.630;8.886;2024-01-30T06:18:27;44.35;;;22.88;;
34405;SDS011;20658;45.630;8.886;2024-01-30T06:21:03;34.30;;;18.88;;
34405;SDS011;20658;45.630;8.886;2024-01-30T06:23:32;35.03;;;18.90;;
34405;SDS011;20658;45.630;8.886;2024-01-30T06:26:02;42.85;;;20.77;;
34405;SDS011;20658;45.630;8.886;2024-01-30T06:28:31;39.60;;;20.95;;
34405;SDS011;20658;45.630;8.886;2024-01-30T06:31:00;39.30;;;20.50;;
34405;SDS011;20658;45.630;8.886;2024-01-30T06:33:34;37.35;;;20.10;;
34405;SDS011;20658;45.630;8.886;2024-01-30T06:36:07;38.13;;;21.83;;
34405;SDS011;20658;45.630;8.886;2024-01-30T06:38:41;36.58;;;20.88;;
34405;SDS011;20658;45.630;8.886;2024-01-30T06:41:11;39.50;;;20.95;;
34405;SDS011;20658;45.630;8.886;2024-01-30T06:43:39;34.97;;;21.15;;
34405;SDS011;20658;45.630;8.886;2024-01-30T06:46:13;37.67;;;22.73;;
34405;SDS011;20658;45.630;8.886;2024-01-30T06:48:46;37.95;;;21.83;;
34405;SDS011;20658;45.630;8.886;2024-01-30T06:51:14;44.92;;;23.42;;
34405;SDS011;20658;45.630;8.886;2024-01-30T06:53:48;37.38;;;21.55;;
34405;SDS011;20658;45.630;8.886;2024-01-30T06:56:23;40.22;;;21.95;;
34405;SDS011;20658;45.630;8.886;2024-01-30T06:58:56;40.90;;;21.83;;
34405;SDS011;20658;45.630;8.886;2024-01-30T07:01:31;41.22;;;22.92;;
34405;SDS011;20658;45.630;8.886;2024-01-30T07:04:04;37.20;;;22.27;;
34405;SDS011;20658;45.630;8.886;2024-01-30T07:06:38;43.13;;;20.95;;
34405;SDS011;20658;45.630;8.886;2024-01-30T07:09:06;38.70;;;20.90;;
34405;SDS011;20658;45.630;8.886;2024-01-30T07:11:42;47.40;;;25.42;;
34405;SDS011;20658;45.630;8.886;2024-01-30T07:14:10;50.15;;;26.30;;
34405;SDS011;20658;45.630;8.886;2024-01-30T07:16:39;36.22;;;22.45;;
34405;SDS011;20658;45.630;8.886;2024-01-30T07:19:12;48.60;;;23.90;;
34405;SDS011;20658;45.630;8.886;2024-01-30T07:21:41;37.90;;;20.88;;
34405;SDS011;20658;45.630;8.886;2024-01-30T07:24:15;42.03;;;23.00;;
34405;SDS011;20658;45.630;8.886;2024-01-30T07:26:45;39.42;;;22.05;;
34405;SDS011;20658;45.630;8.886;2024-01-30T07:29:13;38.08;;;21.65;;
34405;SDS011;20658;45.630;8.886;2024-01-30T07:31:42;42.42;;;24.17;;
34405;SDS011;20658;45.630;8.886;2024-01-30T07:34:11;41.65;;;24.40;;
34405;SDS011;20658;45.630;8.886;2024-01-30T07:36:39;39.47;;;23.80;;
34405;SDS011;20658;45.630;8.886;2024-01-30T07:39:08;40.83;;;25.13;;
34405;SDS011;20658;45.630;8.886;2024-01-30T07:41:37;43.85;;;25.40;;
34405;SDS011;20658;45.630;8.886;2024-01-30T07:44:12;37.65;;;22.05;;
34405;SDS011;20658;45.630;8.886;2024-01-30T07:46:40;38.55;;;20.63;;
34405;SDS011;20658;45.630;8.886;2024-01-30T07:49:14;34.28;;;20.05;;
34405;SDS011;20658;45.630;8.886;2024-01-30T07:51:42;33.38;;;18.15;;
34405;SDS011;20658;45.630;8.886;2024-01-30T07:54:11;38.67;;;19.73;;
34405;SDS011;20658;45.630;8.886;2024-01-30T07:56:45;31.40;;;18.33;;
34405;SDS011;20658;45.630;8.886;2024-01-30T07:59:20;34.75;;;18.92;;
34405;SDS011;20658;45.630;8.886;2024-01-30T08:01:51;34.90;;;19.27;;
34405;SDS011;20658;45.630;8.886;2024-01-30T08:04:19;35.20;;;20.20;;
34405;SDS011;20658;45.630;8.886;2024-01-30T08:06:48;35.72;;;20.42;;
34405;SDS011;20658;45.630;8.886;2024-01-30T08:09:16;36.42;;;19.98;;
34405;SDS011;20658;45.630;8.886;2024-01-30T08:11:49;31.58;;;18.88;;
34405;SDS011;20658;45.630;8.886;2024-01-30T08:14:24;36.17;;;20.83;;
34405;SDS011;20658;45.630;8.886;2024-01-30T08:16:58;35.58;;;20.08;;
34405;SDS011;20658;45.630;8.886;2024-01-30T08:19:31;36.38;;;19.13;;
34405;SDS011;20658;45.630;8.886;2024-01-30T08:22:00;34.17;;;19.55;;
34405;SDS011;20658;45.630;8.886;2024-01-30T08:24:33;34.53;;;20.15;;
34405;SDS011;20658;45.630;8.886;2024-01-30T08:27:07;41.30;;;21.08;;
34405;SDS011;20658;45.630;8.886;2024-01-30T08:29:43;34.35;;;20.27;;
34405;SDS011;20658;45.630;8.886;2024-01-30T08:32:11;34.47;;;18.95;;
34405;SDS011;20658;45.630;8.886;2024-01-30T08:34:45;34.90;;;20.75;;
34405;SDS011;20658;45.630;8.886;2024-01-30T08:37:18;37.45;;;20.88;;
34405;SDS011;20658;45.630;8.886;2024-01-30T08:39:52;36.03;;;20.20;;
34405;SDS011;20658;45.630;8.886;2024-01-30T08:42:20;37.00;;;21.70;;
34405;SDS011;20658;45.630;8.886;2024-01-30T08:44:55;38.30;;;22.02;;
34405;SDS011;20658;45.630;8.886;2024-01-30T08:47:29;39.58;;;22.00;;
34405;SDS011;20658;45.630;8.886;2024-01-30T08:49:57;35.60;;;19.83;;
34405;SDS011;20658;45.630;8.886;2024-01-30T08:52:25;39.72;;;22.85;;
34405;SDS011;20658;45.630;8.886;2024-01-30T08:54:59;45.97;;;22.35;;
34405;SDS011;20658;45.630;8.886;2024-01-30T08:57:33;37.85;;;22.48;;
34405;SDS011;20658;45.630;8.886;2024-01-30T09:00:03;40.90;;;22.38;;
34405;SDS011;20658;45.630;8.886;2024-01-30T09:02:35;40.65;;;23.70;;
34405;SDS011;20658;45.630;8.886;2024-01-30T09:05:08;45.35;;;26.42;;
34405;SDS011;20658;45.630;8.886;2024-01-30T09:07:37;82.50;;;45.50;;
34405;SDS011;20658;45.630;8.886;2024-01-30T09:10:11;43.85;;;25.17;;
34405;SDS011;20658;45.630;8.886;2024-01-30T09:12:44;44.72;;;27.10;;
34405;SDS011;20658;45.630;8.886;2024-01-30T09:15:14;50.63;;;33.35;;
34405;SDS011;20658;45.630;8.886;2024-01-30T09:17:48;40.78;;;23.70;;
34405;SDS011;20658;45.630;8.886;2024-01-30T09:20:22;46.00;;;26.77;;
34405;SDS011;20658;45.630;8.886;2024-01-30T09:22:50;44.72;;;27.63;;
34405;SDS011;20658;45.630;8.886;2024-01-30T09:25:19;43.40;;;26.60;;
34405;SDS011;20658;45.630;8.886;2024-01-30T09:27:52;47.03;;;26.65;;
34405;SDS011;20658;45.630;8.886;2024-01-30T09:30:27;43.10;;;26.27;;
34405;SDS011;20658;45.630;8.886;2024-01-30T09:33:00;46.97;;;26.70;;
34405;SDS011;20658;45.630;8.886;2024-01-30T09:35:34;42.08;;;25.63;;
34405;SDS011;20658;45.630;8.886;2024-01-30T09:38:08;41.97;;;24.33;;
34405;SDS011;20658;45.630;8.886;2024-01-30T09:40:42;41.28;;;23.77;;
34405;SDS011;20658;45.630;8.886;2024-01-30T09:43:10;40.15;;;23.40;;
34405;SDS011;20658;45.630;8.886;2024-01-30T09:45:55;43.78;;;25.88;;
34405;SDS011;20658;45.630;8.886;2024-01-30T09:48:30;44.95;;;24.20;;
34405;SDS011;20658;45.630;8.886;2024-01-30T09:51:05;51.95;;;25.30;;
34405;SDS011;20658;45.630;8.886;2024-01-30T09:53:33;47.97;;;24.38;;
34405;SDS011;20658;45.630;8.886;2024-01-30T09:56:08;44.55;;;24.98;;
34405;SDS011;20658;45.630;8.886;2024-01-30T09:58:42;53.35;;;24.90;;
34405;SDS011;20658;45.630;8.886;2024-01-30T10:01:17;50.40;;;25.95;;
34405;SDS011;20658;45.630;8.886;2024-01-30T10:03:52;50.65;;;26.30;;
34405;SDS011;20658;45.630;8.886;2024-01-30T10:06:26;46.78;;;25.40;;
34405;SDS011;20658;45.630;8.886;2024-01-30T10:08:55;43.67;;;25.48;;
34405;SDS011;20658;45.630;8.886;2024-01-30T10:11:28;46.45;;;24.33;;
34405;SDS011;20658;45.630;8.886;2024-01-30T10:14:03;42.00;;;23.98;;
34405;SDS011;20658;45.630;8.886;2024-01-30T10:16:37;46.13;;;22.42;;
34405;SDS011;20658;45.630;8.886;2024-01-30T10:19:11;40.78;;;21.88;;
34405;SDS011;20658;45.630;8.886;2024-01-30T10:21:45;40.08;;;21.98;;
34405;SDS011;20658;45.630;8.886;2024-01-30T10:24:14;42.40;;;23.13;;
34405;SDS011;20658;45.630;8.886;2024-01-30T10:26:48;63.03;;;21.38;;
34405;SDS011;20658;45.630;8.886;2024-01-30T10:29:22;44.50;;;22.30;;
34405;SDS011;20658;45.630;8.886;2024-01-30T10:32:01;39.45;;;23.35;;
34405;SDS011;20658;45.630;8.886;2024-01-30T10:34:35;37.95;;;23.13;;
34405;SDS011;20658;45.630;8.886;2024-01-30T10:37:09;37.97;;;22.77;;
34405;SDS011;20658;45.630;8.886;2024-01-30T10:39:46;42.30;;;22.27;;
34405;SDS011;20658;45.630;8.886;2024-01-30T10:42:20;42.90;;;22.88;;
34405;SDS011;20658;45.630;8.886;2024-01-30T10:45:00;44.42;;;22.42;;
34405;SDS011;20658;45.630;8.886;2024-01-30T10:47:41;39.47;;;23.50;;
34405;SDS011;20658;45.630;8.886;2024-01-30T10:50:21;45.40;;;23.73;;
34405;SDS011;20658;45.630;8.886;2024-01-30T10:52:58;41.25;;;22.55;;
34405;SDS011;20658;45.630;8.886;2024-01-30T10:55:32;39.05;;;23.05;;
34405;SDS011;20658;45.630;8.886;2024-01-30T10:58:02;42.22;;;24.20;;
34405;SDS011;20658;45.630;8.886;2024-01-30T11:00:36;48.17;;;26.27;;
34405;SDS011;20658;45.630;8.886;2024-01-30T11:03:12;44.65;;;27.52;;
34405;SDS011;20658;45.630;8.886;2024-01-30T11:05:41;45.78;;;27.17;;
34405;SDS011;20658;45.630;8.886;2024-01-30T11:08:14;53.45;;;28.48;;
34405;SDS011;20658;45.630;8.886;2024-01-30T11:10:47;57.08;;;33.85;;
34405;SDS011;20658;45.630;8.886;2024-01-30T11:13:21;59.22;;;34.20;;
34405;SDS011;20658;45.630;8.886;2024-01-30T11:15:55;54.78;;;34.50;;
34405;SDS011;20658;45.630;8.886;2024-01-30T11:18:35;64.30;;;36.47;;
34405;SDS011;20658;45.630;8.886;2024-01-30T11:21:04;55.00;;;34.67;;
34405;SDS011;20658;45.630;8.886;2024-01-30T11:23:38;56.15;;;35.17;;
34405;SDS011;20658;45.630;8.886;2024-01-30T11:26:11;63.78;;;38.17;;
34405;SDS011;20658;45.630;8.886;2024-01-30T11:28:45;59.08;;;35.65;;
34405;SDS011;20658;45.630;8.886;2024-01-30T11:31:25;57.65;;;36.05;;
34405;SDS011;20658;45.630;8.886;2024-01-30T11:34:01;58.95;;;36.13;;
34405;SDS011;20658;45.630;8.886;2024-01-30T11:36:30;61.25;;;35.47;;
34405;SDS011;20658;45.630;8.886;2024-01-30T11:39:08;54.38;;;34.72;;
34405;SDS011;20658;45.630;8.886;2024-01-30T11:41:42;55.13;;;33.13;;
34405;SDS011;20658;45.630;8.886;2024-01-30T11:44:18;52.17;;;33.58;;
34405;SDS011;20658;45.630;8.886;2024-01-30T11:46:52;56.25;;;33.13;;
34405;SDS011;20658;45.630;8.886;2024-01-30T11:49:22;50.08;;;33.25;;
34405;SDS011;20658;45.630;8.886;2024-01-30T11:51:56;45.72;;;30.05;;
34405;SDS011;20658;45.630;8.886;2024-01-30T11:54:30;46.75;;;30.98;;
34405;SDS011;20658;45.630;8.886;2024-01-30T11:56:59;49.45;;;31.42;;
34405;SDS011;20658;45.630;8.886;2024-01-30T11:59:33;46.70;;;32.25;;
34405;SDS011;20658;45.630;8.886;2024-01-30T12:02:06;53.83;;;32.55;;
34405;SDS011;20658;45.630;8.886;2024-01-30T12:04:41;49.67;;;32.97;;
34405;SDS011;20658;45.630;8.886;2024-01-30T12:07:15;50.88;;;31.98;;
34405;SDS011;20658;45.630;8.886;2024-01-30T12:09:52;50.92;;;31.00;;
34405;SDS011;20658;45.630;8.886;2024-01-30T12:12:26;43.83;;;29.35;;
34405;SDS011;20658;45.630;8.886;2024-01-30T12:15:01;48.58;;;30.08;;
34405;SDS011;20658;45.630;8.886;2024-01-30T12:17:35;44.90;;;28.20;;
34405;SDS011;20658;45.630;8.886;2024-01-30T12:20:11;50.05;;;29.20;;
34405;SDS011;20658;45.630;8.886;2024-01-30T12:22:48;47.60;;;29.58;;
34405;SDS011;20658;45.630;8.886;2024-01-30T12:25:22;44.17;;;29.27;;
34405;SDS011;20658;45.630;8.886;2024-01-30T12:27:55;49.72;;;29.88;;
34405;SDS011;20658;45.630;8.886;2024-01-30T12:30:29;43.88;;;29.92;;
34405;SDS011;20658;45.630;8.886;2024-01-30T12:33:02;45.45;;;29.83;;
34405;SDS011;20658;45.630;8.886;2024-01-30T12:35:41;48.60;;;30.10;;
34405;SDS011;20658;45.630;8.886;2024-01-30T12:38:19;47.92;;;30.45;;
34405;SDS011;20658;45.630;8.886;2024-01-30T12:40:54;48.45;;;30.77;;
34405;SDS011;20658;45.630;8.886;2024-01-30T12:43:27;47.60;;;28.88;;
34405;SDS011;20658;45.630;8.886;2024-01-30T12:46:02;42.70;;;26.92;;
34405;SDS011;20658;45.630;8.886;2024-01-30T12:48:36;40.70;;;26.42;;
34405;SDS011;20658;45.630;8.886;2024-01-30T12:51:11;40.92;;;27.08;;
34405;SDS011;20658;45.630;8.886;2024-01-30T12:53:45;45.58;;;26.15;;
34405;SDS011;20658;45.630;8.886;2024-01-30T12:56:19;43.00;;;26.70;;
34405;SDS011;20658;45.630;8.886;2024-01-30T12:58:53;39.55;;;27.10;;
34405;SDS011;20658;45.630;8.886;2024-01-30T13:01:26;42.47;;;25.33;;
34405;SDS011;20658;45.630;8.886;2024-01-30T13:04:00;39.90;;;26.45;;
34405;SDS011;20658;45.630;8.886;2024-01-30T13:06:35;39.22;;;26.98;;
34405;SDS011;20658;45.630;8.886;2024-01-30T13:09:09;37.47;;;25.20;;
34405;SDS011;20658;45.630;8.886;2024-01-30T13:11:43;38.17;;;24.02;;
34405;SDS011;20658;45.630;8.886;2024-01-30T13:14:17;36.13;;;22.77;;
34405;SDS011;20658;45.630;8.886;2024-01-30T13:16:45;39.63;;;23.42;;
34405;SDS011;20658;45.630;8.886;2024-01-30T13:19:14;33.63;;;23.33;;
34405;SDS011;20658;45.630;8.886;2024-01-30T13:21:44;39.17;;;23.60;;
34405;SDS011;20658;45.630;8.886;2024-01-30T13:24:19;36.30;;;24.38;;
34405;SDS011;20658;45.630;8.886;2024-01-30T13:26:53;33.10;;;20.92;;
34405;SDS011;20658;45.630;8.886;2024-01-30T13:29:21;30.27;;;20.38;;
34405;SDS011;20658;45.630;8.886;2024-01-30T13:31:55;34.28;;;20.67;;
34405;SDS011;20658;45.630;8.886;2024-01-30T13:34:28;32.55;;;21.48;;
34405;SDS011;20658;45.630;8.886;2024-01-30T13:37:03;31.10;;;18.92;;
34405;SDS011;20658;45.630;8.886;2024-01-30T13:39:31;30.73;;;18.58;;
34405;SDS011;20658;45.630;8.886;2024-01-30T13:42:05;28.42;;;17.55;;
34405;SDS011;20658;45.630;8.886;2024-01-30T13:44:39;26.70;;;15.13;;
34405;SDS011;20658;45.630;8.886;2024-01-30T13:47:14;26.55;;;15.27;;
34405;SDS011;20658;45.630;8.886;2024-01-30T13:49:50;21.30;;;12.77;;
34405;SDS011;20658;45.630;8.886;2024-01-30T13:52:25;21.42;;;10.90;;
34405;SDS011;20658;45.630;8.886;2024-01-30T13:54:59;16.23;;;9.77;;
34405;SDS011;20658;45.630;8.886;2024-01-30T13:57:33;18.38;;;10.27;;
34405;SDS011;20658;45.630;8.886;2024-01-30T14:00:03;21.30;;;10.82;;
34405;SDS011;20658;45.630;8.886;2024-01-30T14:02:40;20.92;;;10.85;;
34405;SDS011;20658;45.630;8.886;2024-01-30T14:05:14;19.27;;;10.02;;
34405;SDS011;20658;45.630;8.886;2024-01-30T14:07:49;24.52;;;11.02;;
34405;SDS011;20658;45.630;8.886;2024-01-30T14:10:17;22.70;;;13.55;;
34405;SDS011;20658;45.630;8.886;2024-01-30T14:12:51;27.70;;;16.98;;
34405;SDS011;20658;45.630;8.886;2024-01-30T14:15:24;30.23;;;17.65;;
34405;SDS011;20658;45.630;8.886;2024-01-30T14:17:58;29.10;;;18.33;;
34405;SDS011;20658;45.630;8.886;2024-01-30T14:20:32;29.98;;;18.75;;
34405;SDS011;20658;45.630;8.886;2024-01-30T14:23:07;31.05;;;20.95;;
34405;SDS011;20658;45.630;8.886;2024-01-30T14:25:40;31.48;;;18.95;;
34405;SDS011;20658;45.630;8.886;2024-01-30T14:28:14;33.88;;;21.42;;
34405;SDS011;20658;45.630;8.886;2024-01-30T14:30:47;31.95;;;20.67;;
34405;SDS011;20658;45.630;8.886;2024-01-30T14:33:21;39.63;;;20.33;;
34405;SDS011;20658;45.630;8.886;2024-01-30T14:35:54;32.38;;;19.42;;
34405;SDS011;20658;45.630;8.886;2024-01-30T14:38:29;38.53;;;19.13;;
34405;SDS011;20658;45.630;8.886;2024-01-30T14:41:02;29.50;;;17.42;;
34405;SDS011;20658;45.630;8.886;2024-01-30T14:43:37;31.13;;;19.52;;
34405;SDS011;20658;45.630;8.886;2024-01-30T14:46:05;30.77;;;19.20;;
34405;SDS011;20658;45.630;8.886;2024-01-30T14:48:39;33.83;;;20.58;;
34405;SDS011;20658;45.630;8.886;2024-01-30T14:51:12;31.23;;;20.65;;
34405;SDS011;20658;45.630;8.886;2024-01-30T14:53:47;34.50;;;20.92;;